createdAt,value
2023-04-30T00:00:38.423Z,9.73
2023-04-30T00:03:06.500Z,8.32
2023-04-30T00:05:34.652Z,8.85
2023-04-30T00:08:02.587Z,8.35
2023-04-30T00:10:30.825Z,8.07
2023-04-30T00:12:58.760Z,8.95
2023-04-30T00:15:28.041Z,8.35
2023-04-30T00:17:55.989Z,7.97
2023-04-30T00:20:23.931Z,8.00
2023-04-30T00:22:51.917Z,8.50
2023-04-30T00:25:20.967Z,8.10
2023-04-30T00:27:49.018Z,8.48
2023-04-30T00:30:17.023Z,7.95
2023-04-30T00:32:46.831Z,9.10
2023-04-30T00:35:14.816Z,8.13
2023-04-30T00:37:42.788Z,8.40
2023-04-30T00:40:11.821Z,7.57
2023-04-30T00:42:39.729Z,7.70
2023-04-30T00:45:09.163Z,7.40
2023-04-30T00:47:37.141Z,7.40
2023-04-30T00:50:07.556Z,7.10
2023-04-30T00:52:35.579Z,7.28
2023-04-30T00:55:03.633Z,7.35
2023-04-30T00:57:31.911Z,7.13
2023-04-30T01:00:00.403Z,7.47
2023-04-30T01:02:28.964Z,7.47
2023-04-30T01:04:58.450Z,7.38
2023-04-30T01:07:28.640Z,7.55
2023-04-30T01:09:56.901Z,7.13
2023-04-30T01:12:30.700Z,7.85
2023-04-30T01:15:09.019Z,6.97
2023-04-30T01:17:42.408Z,7.38
2023-04-30T01:20:11.589Z,7.32
2023-04-30T01:22:48.464Z,7.50
2023-04-30T01:25:36.494Z,7.72
2023-04-30T01:28:07.995Z,7.25
2023-04-30T01:30:36.895Z,6.53
2023-04-30T01:33:05.188Z,7.30
2023-04-30T01:35:47.772Z,7.80
2023-04-30T01:38:26.725Z,7.30
2023-04-30T01:41:00.679Z,8.00
2023-04-30T01:43:39.713Z,7.10
2023-04-30T01:46:19.865Z,7.65
2023-04-30T01:48:59.673Z,7.57
2023-04-30T01:51:32.303Z,7.28
2023-04-30T01:54:07.238Z,7.47
2023-04-30T01:56:45.475Z,7.10
2023-04-30T01:59:16.856Z,7.32
2023-04-30T02:01:44.809Z,7.03
2023-04-30T02:04:13.101Z,6.80
2023-04-30T02:06:41.495Z,7.43
2023-04-30T02:09:10.672Z,7.22
2023-04-30T02:11:38.635Z,7.30
2023-04-30T02:14:06.783Z,7.35
2023-04-30T02:16:36.074Z,6.90
2023-04-30T02:19:04.116Z,7.00
2023-04-30T02:21:32.478Z,7.07
2023-04-30T02:24:00.497Z,7.15
2023-04-30T02:26:28.419Z,7.28
2023-04-30T02:28:56.604Z,7.13
2023-04-30T02:31:24.603Z,7.95
2023-04-30T02:33:54.187Z,8.27
2023-04-30T02:36:22.612Z,8.32
2023-04-30T02:38:50.568Z,8.10
2023-04-30T02:41:18.599Z,9.13
2023-04-30T02:43:46.497Z,9.00
2023-04-30T02:46:14.449Z,9.13
2023-04-30T02:48:42.449Z,8.88
2023-04-30T02:51:11.928Z,9.05
2023-04-30T02:53:39.901Z,8.90
2023-04-30T02:56:08.920Z,8.85
2023-04-30T02:58:36.934Z,9.60
2023-04-30T03:01:04.952Z,8.68
2023-04-30T03:03:33.707Z,9.60
2023-04-30T03:06:01.855Z,9.52
2023-04-30T03:08:31.207Z,10.15
2023-04-30T03:10:59.265Z,9.65
2023-04-30T03:13:27.124Z,9.65
2023-04-30T03:15:59.642Z,9.65
2023-04-30T03:18:28.338Z,10.27
2023-04-30T03:20:56.572Z,9.30
2023-04-30T03:23:24.717Z,10.30
2023-04-30T03:25:54.380Z,9.80
2023-04-30T03:28:22.623Z,10.43
2023-04-30T03:30:50.714Z,11.15
2023-04-30T03:33:18.882Z,10.55
2023-04-30T03:35:47.132Z,10.70
2023-04-30T03:38:15.091Z,10.57
2023-04-30T03:40:43.173Z,11.07
2023-04-30T03:43:13.453Z,11.38
2023-04-30T03:45:41.374Z,12.55
2023-04-30T03:48:09.515Z,11.98
2023-04-30T03:50:37.662Z,11.77
2023-04-30T03:53:06.309Z,11.65
2023-04-30T03:55:34.599Z,11.43
2023-04-30T03:58:02.706Z,11.30
2023-04-30T04:00:32.181Z,11.75
2023-04-30T04:03:00.372Z,12.00
2023-04-30T04:05:29.419Z,10.98
2023-04-30T04:07:57.393Z,12.50
2023-04-30T04:10:25.428Z,12.65
2023-04-30T04:12:53.386Z,11.50
2023-04-30T04:15:21.618Z,12.30
2023-04-30T04:17:51.397Z,12.45
2023-04-30T04:20:19.643Z,13.15
2023-04-30T04:22:47.626Z,12.70
2023-04-30T04:25:16.055Z,12.50
2023-04-30T04:27:44.014Z,13.13
2023-04-30T04:30:13.703Z,12.98
2023-04-30T04:32:46.852Z,12.40
2023-04-30T04:35:16.512Z,12.40
2023-04-30T04:37:44.418Z,13.52
2023-04-30T04:40:13.790Z,12.10
2023-04-30T04:42:41.926Z,13.02
2023-04-30T04:45:11.241Z,12.45
2023-04-30T04:47:39.246Z,12.82
2023-04-30T04:50:08.443Z,12.77
2023-04-30T04:52:37.828Z,9.27
2023-04-30T04:55:07.198Z,9.65
2023-04-30T04:57:35.124Z,8.43
2023-04-30T05:00:04.091Z,7.97
2023-04-30T05:02:32.086Z,7.75
2023-04-30T05:05:00.189Z,7.88
2023-04-30T05:07:28.213Z,6.63
2023-04-30T05:09:57.739Z,6.10
2023-04-30T05:12:25.836Z,6.85
2023-04-30T05:14:53.771Z,5.95
2023-04-30T05:17:21.797Z,5.93
2023-04-30T05:19:50.695Z,6.30
2023-04-30T05:22:19.901Z,6.25
2023-04-30T05:24:47.826Z,6.53
2023-04-30T05:27:17.454Z,6.18
2023-04-30T05:29:45.341Z,6.55
2023-04-30T05:32:13.422Z,6.53
2023-04-30T05:34:41.517Z,6.30
2023-04-30T05:37:09.478Z,6.60
2023-04-30T05:39:37.474Z,5.88
2023-04-30T05:42:05.443Z,6.93
2023-04-30T05:44:34.801Z,6.25
2023-04-30T05:47:02.650Z,6.10
2023-04-30T05:49:30.947Z,6.63
2023-04-30T05:51:58.878Z,6.90
2023-04-30T05:54:26.860Z,6.60
2023-04-30T05:56:54.824Z,6.38
2023-04-30T05:59:22.852Z,6.07
2023-04-30T06:01:52.138Z,6.47
2023-04-30T06:04:20.055Z,5.70
2023-04-30T06:06:48.130Z,6.13
2023-04-30T06:09:16.149Z,6.50
2023-04-30T06:11:45.308Z,6.47
2023-04-30T06:14:13.432Z,6.28
2023-04-30T06:16:41.520Z,6.60
2023-04-30T06:19:14.601Z,7.03
2023-04-30T06:21:43.851Z,7.07
2023-04-30T06:24:11.905Z,7.20
2023-04-30T06:26:39.889Z,7.05
2023-04-30T06:29:07.900Z,7.00
2023-04-30T06:31:35.996Z,7.20
2023-04-30T06:34:04.068Z,7.10
2023-04-30T06:36:33.320Z,7.93
2023-04-30T06:39:01.212Z,7.57
2023-04-30T06:41:29.293Z,7.60
2023-04-30T06:43:57.250Z,7.25
2023-04-30T06:46:25.434Z,7.38
2023-04-30T06:48:53.471Z,7.40
2023-04-30T06:51:21.563Z,8.13
2023-04-30T06:53:51.015Z,7.43
2023-04-30T06:56:18.980Z,7.63
2023-04-30T06:58:46.858Z,7.72
2023-04-30T07:01:14.847Z,7.75
2023-04-30T07:03:43.051Z,7.25
2023-04-30T07:06:11.491Z,6.07
2023-04-30T07:08:41.156Z,7.03
2023-04-30T07:11:10.513Z,6.78
2023-04-30T07:13:38.511Z,6.63
2023-04-30T07:16:09.170Z,7.40
2023-04-30T07:18:37.822Z,6.85
2023-04-30T07:21:05.973Z,7.05
2023-04-30T07:23:33.942Z,6.70
2023-04-30T07:26:01.887Z,6.80
2023-04-30T07:28:31.168Z,6.00
2023-04-30T07:30:59.134Z,5.90
2023-04-30T07:33:27.105Z,5.32
2023-04-30T07:35:56.607Z,5.70
2023-04-30T07:38:24.589Z,5.43
2023-04-30T07:40:52.596Z,6.10
2023-04-30T07:43:20.678Z,6.00
2023-04-30T07:45:51.141Z,6.30
2023-04-30T07:48:19.118Z,6.20
2023-04-30T07:50:50.755Z,5.40
2023-04-30T07:53:20.718Z,5.88
2023-04-30T07:55:48.848Z,5.43
2023-04-30T07:58:16.770Z,5.97
2023-04-30T08:00:44.737Z,5.85
2023-04-30T08:03:14.027Z,5.90
2023-04-30T08:05:42.124Z,5.53
2023-04-30T08:08:10.061Z,5.80
2023-04-30T08:10:37.962Z,5.32
2023-04-30T08:13:06.535Z,5.85
2023-04-30T08:15:35.258Z,6.00
2023-04-30T08:18:05.259Z,5.72
2023-04-30T08:20:36.572Z,5.63
2023-04-30T08:23:06.832Z,5.90
2023-04-30T08:25:34.799Z,5.82
2023-04-30T08:28:02.785Z,5.40
2023-04-30T08:30:30.715Z,4.90
2023-04-30T08:32:59.232Z,4.82
2023-04-30T08:35:27.568Z,4.07
2023-04-30T08:37:56.953Z,4.32
2023-04-30T08:40:43.836Z,4.63
2023-04-30T08:43:13.426Z,4.07
2023-04-30T08:45:41.787Z,4.00
2023-04-30T08:48:12.351Z,4.07
2023-04-30T08:50:40.300Z,4.00
2023-04-30T08:53:11.846Z,3.67
2023-04-30T08:55:41.617Z,3.90
2023-04-30T08:58:10.401Z,4.35
2023-04-30T09:00:40.455Z,4.03
2023-04-30T09:03:09.412Z,3.80
2023-04-30T09:05:38.636Z,3.65
2023-04-30T09:08:09.612Z,3.63
2023-04-30T09:10:37.582Z,3.30
2023-04-30T09:13:07.735Z,3.75
2023-04-30T09:15:37.944Z,3.35
2023-04-30T09:18:14.392Z,3.33
2023-04-30T09:20:56.475Z,3.63
2023-04-30T09:23:26.767Z,4.10
2023-04-30T09:25:54.948Z,4.20
2023-04-30T09:28:25.474Z,4.18
2023-04-30T09:30:54.041Z,4.47
2023-04-30T09:33:22.003Z,4.38
2023-04-30T09:35:50.203Z,4.13
2023-04-30T09:38:30.228Z,4.15
2023-04-30T09:40:59.905Z,3.97
2023-04-30T09:43:31.175Z,3.92
2023-04-30T09:46:00.512Z,4.18
2023-04-30T09:48:29.606Z,4.28
2023-04-30T09:50:58.136Z,4.03
2023-04-30T09:53:26.122Z,3.83
2023-04-30T09:55:58.521Z,3.45
2023-04-30T09:58:29.099Z,3.40
2023-04-30T10:01:00.397Z,3.47
2023-04-30T10:03:28.933Z,3.38
2023-04-30T10:05:57.143Z,3.60
2023-04-30T10:08:29.259Z,3.75
2023-04-30T10:11:02.111Z,3.22
2023-04-30T10:13:33.300Z,3.63
2023-04-30T10:16:05.804Z,3.35
2023-04-30T10:18:38.329Z,3.42
2023-04-30T10:21:12.059Z,3.20
2023-04-30T10:23:42.090Z,3.55
2023-04-30T10:26:12.271Z,3.28
2023-04-30T10:28:40.849Z,3.33
2023-04-30T10:31:10.864Z,3.53
2023-04-30T10:33:50.055Z,3.85
2023-04-30T10:36:25.453Z,3.63
2023-04-30T10:38:54.490Z,3.60
2023-04-30T10:41:23.913Z,3.33
2023-04-30T10:43:51.956Z,3.13
2023-04-30T10:46:29.360Z,3.15
2023-04-30T10:48:57.396Z,3.28
2023-04-30T10:51:25.585Z,3.40
2023-04-30T10:53:55.765Z,3.53
2023-04-30T10:56:34.747Z,3.70
2023-04-30T10:59:03.504Z,3.38
2023-04-30T11:01:32.624Z,3.13
2023-04-30T11:04:08.700Z,3.58
2023-04-30T11:06:57.073Z,3.63
2023-04-30T11:09:46.055Z,3.40
2023-04-30T11:12:17.241Z,3.42
2023-04-30T11:14:46.415Z,4.00
2023-04-30T11:17:23.584Z,4.00
2023-04-30T11:19:52.902Z,3.35
2023-04-30T11:22:24.150Z,3.63
2023-04-30T11:25:03.636Z,2.90
2023-04-30T11:27:33.931Z,3.35
2023-04-30T11:30:03.140Z,3.10
2023-04-30T11:32:35.510Z,3.10
2023-04-30T11:35:04.608Z,3.08
2023-04-30T11:37:33.871Z,3.30
2023-04-30T11:40:03.849Z,3.10
2023-04-30T11:42:35.110Z,3.60
2023-04-30T11:45:08.479Z,3.50
2023-04-30T11:47:43.973Z,3.75
2023-04-30T11:50:13.796Z,3.22
2023-04-30T11:52:43.385Z,3.33
2023-04-30T11:55:16.499Z,3.47
2023-04-30T11:57:48.826Z,3.30
2023-04-30T12:00:18.718Z,2.88
2023-04-30T12:02:48.117Z,3.20
2023-04-30T12:05:17.751Z,2.90
2023-04-30T12:07:49.853Z,2.63
2023-04-30T12:10:19.612Z,3.05
2023-04-30T12:12:51.287Z,2.90
2023-04-30T12:15:23.282Z,2.92
2023-04-30T12:17:51.449Z,2.97
2023-04-30T12:20:19.818Z,3.13
2023-04-30T12:22:47.923Z,2.72
2023-04-30T12:25:18.682Z,2.65
2023-04-30T12:27:50.130Z,2.85
2023-04-30T12:30:21.284Z,3.00
2023-04-30T12:32:51.797Z,3.35
2023-04-30T12:35:22.048Z,3.08
2023-04-30T12:37:51.312Z,3.03
2023-04-30T12:40:20.540Z,2.97
2023-04-30T12:42:49.993Z,2.97
2023-04-30T12:45:51.227Z,3.05
2023-04-30T12:48:20.438Z,3.67
2023-04-30T12:50:56.339Z,6.32
2023-04-30T12:53:25.029Z,4.22
2023-04-30T12:56:09.325Z,3.25
2023-04-30T12:58:39.248Z,2.85
2023-04-30T13:01:11.479Z,3.35
2023-04-30T13:03:39.791Z,10.32
2023-04-30T13:06:08.302Z,4.03
2023-04-30T13:08:45.679Z,3.05
2023-04-30T13:11:24.308Z,4.38
2023-04-30T13:13:55.183Z,4.10
2023-04-30T13:16:24.945Z,3.42
2023-04-30T13:18:53.285Z,3.33
2023-04-30T13:21:21.709Z,2.88
2023-04-30T13:23:53.411Z,2.70
2023-04-30T13:26:23.326Z,2.90
2023-04-30T13:28:53.075Z,3.78
2023-04-30T13:31:22.328Z,3.00
2023-04-30T13:33:50.816Z,3.10
2023-04-30T13:36:18.919Z,3.30
2023-04-30T13:38:46.907Z,3.67
2023-04-30T13:41:15.411Z,3.13
2023-04-30T13:43:44.638Z,3.00
2023-04-30T13:46:14.281Z,3.85
2023-04-30T13:48:42.706Z,3.20
2023-04-30T13:51:10.873Z,2.60
2023-04-30T13:53:38.880Z,3.47
2023-04-30T13:56:07.422Z,3.38
2023-04-30T13:58:35.740Z,3.30
2023-04-30T14:01:03.818Z,3.78
2023-04-30T14:03:33.816Z,2.78
2023-04-30T14:06:02.077Z,3.38
2023-04-30T14:08:31.087Z,3.33
2023-04-30T14:10:59.052Z,2.50
2023-04-30T14:13:27.117Z,3.03
2023-04-30T14:15:56.134Z,3.00
2023-04-30T14:18:24.384Z,2.60
2023-04-30T14:20:53.696Z,2.70
2023-04-30T14:23:21.645Z,3.28
2023-04-30T14:25:49.663Z,11.23
2023-04-30T14:28:18.002Z,12.20
2023-04-30T14:30:45.927Z,13.38
2023-04-30T14:33:14.709Z,8.77
2023-04-30T14:35:42.823Z,4.60
2023-04-30T14:38:12.170Z,8.70
2023-04-30T14:40:40.286Z,4.22
2023-04-30T14:43:08.242Z,8.98
2023-04-30T14:45:36.329Z,3.60
2023-04-30T14:48:05.652Z,4.05
2023-04-30T14:50:33.749Z,3.30
2023-04-30T14:53:02.085Z,5.22
2023-04-30T14:55:31.598Z,2.20
2023-04-30T14:58:00.993Z,2.70
2023-04-30T15:00:29.159Z,2.58
2023-04-30T15:02:57.168Z,2.72
2023-04-30T15:05:25.326Z,2.70
2023-04-30T15:07:53.406Z,2.65
2023-04-30T15:10:21.479Z,2.60
2023-04-30T15:12:51.438Z,2.50
2023-04-30T15:15:21.219Z,2.80
2023-04-30T15:17:49.602Z,2.95
2023-04-30T15:20:17.619Z,2.47
2023-04-30T15:22:45.629Z,3.08
2023-04-30T15:25:13.887Z,3.33
2023-04-30T15:27:42.216Z,2.53
2023-04-30T15:30:12.090Z,3.10
2023-04-30T15:32:40.611Z,2.83
2023-04-30T15:35:10.169Z,2.80
2023-04-30T15:37:38.407Z,2.70
2023-04-30T15:40:08.373Z,3.03
2023-04-30T15:42:37.483Z,2.80
2023-04-30T15:45:06.181Z,3.13
2023-04-30T15:47:35.806Z,7.10
2023-04-30T15:50:03.892Z,6.03
2023-04-30T15:52:32.169Z,8.68
2023-04-30T15:55:00.456Z,12.05
2023-04-30T15:57:28.748Z,5.78
2023-04-30T16:00:00.076Z,5.07
2023-04-30T16:02:28.182Z,5.28
2023-04-30T16:04:59.048Z,3.30
2023-04-30T16:07:27.192Z,3.38
2023-04-30T16:09:56.364Z,3.05
2023-04-30T16:12:24.622Z,4.72
2023-04-30T16:14:53.362Z,2.70
2023-04-30T16:17:24.290Z,7.28
2023-04-30T16:19:52.294Z,4.13
2023-04-30T16:22:22.363Z,3.25
2023-04-30T16:24:50.326Z,2.80
2023-04-30T16:27:18.649Z,3.40
2023-04-30T16:29:46.617Z,3.90
2023-04-30T16:32:14.747Z,2.88
2023-04-30T16:34:42.799Z,2.70
2023-04-30T16:37:10.999Z,2.60
2023-04-30T16:39:40.644Z,2.95
2023-04-30T16:42:09.366Z,2.80
2023-04-30T16:44:37.388Z,2.55
2023-04-30T16:47:05.468Z,5.05
2023-04-30T16:49:33.529Z,3.42
2023-04-30T16:52:02.337Z,5.07
2023-04-30T16:54:32.106Z,6.00
2023-04-30T16:57:04.651Z,2.92
2023-04-30T16:59:32.652Z,2.83
2023-04-30T17:02:04.047Z,4.43
2023-04-30T17:04:32.588Z,5.57
2023-04-30T17:07:00.840Z,3.05
2023-04-30T17:09:29.715Z,4.50
2023-04-30T17:11:57.785Z,6.80
2023-04-30T17:14:28.696Z,4.07
2023-04-30T17:16:57.493Z,6.00
2023-04-30T17:19:25.633Z,8.70
2023-04-30T17:21:53.631Z,3.20
2023-04-30T17:24:22.375Z,3.85
2023-04-30T17:26:51.104Z,3.88
2023-04-30T17:29:19.721Z,3.45
2023-04-30T17:31:49.341Z,3.05
2023-04-30T17:34:17.396Z,4.13
2023-04-30T17:36:45.342Z,4.35
2023-04-30T17:39:13.325Z,3.72
2023-04-30T17:41:42.306Z,2.70
2023-04-30T17:44:10.240Z,3.55
2023-04-30T17:46:39.476Z,4.05
2023-04-30T17:49:08.931Z,3.08
2023-04-30T17:51:37.179Z,4.47
2023-04-30T17:54:05.439Z,3.88
2023-04-30T17:56:33.828Z,4.13
2023-04-30T17:59:01.956Z,3.88
2023-04-30T18:01:30.059Z,2.67
2023-04-30T18:04:01.463Z,3.10
2023-04-30T18:06:31.119Z,3.00
2023-04-30T18:09:01.144Z,3.38
2023-04-30T18:11:29.269Z,2.97
2023-04-30T18:13:57.389Z,3.50
2023-04-30T18:16:25.333Z,3.50
2023-04-30T18:18:53.289Z,3.10
2023-04-30T18:21:21.393Z,3.05
2023-04-30T18:23:50.686Z,3.10
2023-04-30T18:26:21.476Z,2.90
2023-04-30T18:28:49.552Z,2.88
2023-04-30T18:31:17.624Z,2.83
2023-04-30T18:33:45.703Z,2.83
2023-04-30T18:36:13.809Z,2.97
2023-04-30T18:38:41.841Z,3.13
2023-04-30T18:41:12.579Z,3.28
2023-04-30T18:43:42.642Z,3.65
2023-04-30T18:46:10.789Z,3.75
2023-04-30T18:48:38.895Z,3.08
2023-04-30T18:51:08.001Z,3.22
2023-04-30T18:53:36.720Z,2.97
2023-04-30T18:56:05.659Z,4.20
2023-04-30T18:58:35.048Z,3.25
2023-04-30T19:01:04.352Z,3.10
2023-04-30T19:03:34.032Z,3.00
2023-04-30T19:06:02.425Z,2.95
2023-04-30T19:08:30.483Z,3.75
2023-04-30T19:10:58.422Z,4.63
2023-04-30T19:13:26.569Z,3.47
2023-04-30T19:15:56.154Z,3.80
2023-04-30T19:18:25.139Z,3.80
2023-04-30T19:20:59.677Z,3.50
2023-04-30T19:23:30.469Z,3.47
2023-04-30T19:26:01.554Z,3.13
2023-04-30T19:28:29.804Z,3.70
2023-04-30T19:30:59.545Z,3.47
2023-04-30T19:33:28.351Z,3.20
2023-04-30T19:35:57.866Z,3.40
2023-04-30T19:38:25.926Z,3.28
2023-04-30T19:40:55.650Z,3.40
2023-04-30T19:43:24.323Z,2.97
2023-04-30T19:45:54.131Z,3.00
2023-04-30T19:48:24.592Z,3.08
2023-04-30T19:50:54.201Z,3.00
2023-04-30T19:53:25.398Z,2.92
2023-04-30T19:55:53.916Z,3.22
2023-04-30T19:58:21.936Z,2.95
2023-04-30T20:00:50.160Z,2.80
2023-04-30T20:03:20.524Z,3.10
2023-04-30T20:05:50.043Z,3.03
2023-04-30T20:08:18.007Z,3.17
2023-04-30T20:10:49.129Z,2.97
2023-04-30T20:13:18.216Z,3.20
2023-04-30T20:15:46.512Z,2.90
2023-04-30T20:18:14.621Z,2.90
2023-04-30T20:20:43.202Z,3.20
2023-04-30T20:23:14.357Z,2.90
2023-04-30T20:25:45.080Z,3.17
2023-04-30T20:28:13.540Z,3.15
2023-04-30T20:30:43.137Z,2.90
2023-04-30T20:33:11.604Z,3.47
2023-04-30T20:35:41.612Z,3.13
2023-04-30T20:38:09.670Z,3.20
2023-04-30T20:40:40.320Z,2.92
2023-04-30T20:43:08.664Z,2.97
2023-04-30T20:45:36.992Z,2.97
2023-04-30T20:48:05.673Z,2.80
2023-04-30T20:50:33.836Z,2.90
2023-04-30T20:53:01.875Z,2.85
2023-04-30T20:55:30.565Z,3.00
2023-04-30T20:58:00.430Z,3.15
2023-04-30T21:00:28.341Z,2.90
2023-04-30T21:02:56.478Z,3.08
2023-04-30T21:05:24.870Z,3.35
2023-04-30T21:07:53.283Z,3.28
2023-04-30T21:10:21.748Z,3.00
2023-04-30T21:12:49.797Z,2.95
2023-04-30T21:15:19.302Z,2.97
2023-04-30T21:17:48.315Z,2.97
2023-04-30T21:20:16.667Z,2.90
2023-04-30T21:22:44.800Z,3.10
2023-04-30T21:25:12.912Z,3.25
2023-04-30T21:27:40.846Z,3.13
2023-04-30T21:30:10.307Z,3.15
2023-04-30T21:32:39.790Z,3.22
2023-04-30T21:35:08.385Z,3.08
2023-04-30T21:37:36.795Z,3.10
2023-04-30T21:40:05.499Z,3.30
2023-04-30T21:42:34.056Z,3.38
2023-04-30T21:45:02.209Z,3.47
2023-04-30T21:47:30.673Z,3.20
2023-04-30T21:50:00.392Z,3.40
2023-04-30T21:52:28.436Z,3.70
2023-04-30T21:54:56.360Z,3.50
2023-04-30T21:57:24.541Z,3.67
2023-04-30T21:59:52.508Z,3.47
2023-04-30T22:02:24.168Z,3.50
2023-04-30T22:04:53.591Z,4.13
2023-04-30T22:07:23.000Z,4.07
2023-04-30T22:09:51.680Z,3.83
2023-04-30T22:12:21.375Z,3.60
2023-04-30T22:14:51.579Z,3.80
2023-04-30T22:17:19.550Z,4.05
2023-04-30T22:19:47.426Z,4.38
2023-04-30T22:22:15.542Z,3.85
2023-04-30T22:24:44.788Z,3.50
2023-04-30T22:27:12.701Z,3.83
2023-04-30T22:29:41.174Z,3.30
2023-04-30T22:32:09.385Z,3.58
2023-04-30T22:34:40.207Z,3.53
2023-04-30T22:37:10.462Z,3.55
2023-04-30T22:39:38.743Z,3.58
2023-04-30T22:42:10.352Z,3.42
2023-04-30T22:44:38.817Z,3.40
2023-04-30T22:47:07.057Z,3.63
2023-04-30T22:49:37.198Z,3.13
2023-04-30T22:52:05.215Z,3.60
2023-04-30T22:54:33.101Z,3.40
2023-04-30T22:57:01.733Z,4.07
2023-04-30T22:59:31.147Z,3.33
2023-04-30T23:01:59.439Z,3.17
2023-04-30T23:04:28.357Z,3.80
2023-04-30T23:06:56.591Z,3.92
2023-04-30T23:09:24.737Z,3.58
2023-04-30T23:11:52.814Z,3.58
2023-04-30T23:14:20.756Z,3.47
2023-04-30T23:16:50.050Z,3.83
2023-04-30T23:19:18.026Z,3.80
2023-04-30T23:21:45.950Z,4.10
2023-04-30T23:24:13.989Z,3.88
2023-04-30T23:26:41.929Z,3.97
2023-04-30T23:29:09.925Z,4.20
2023-04-30T23:31:38.153Z,4.30
2023-04-30T23:34:07.480Z,3.40
2023-04-30T23:36:35.607Z,4.00
2023-04-30T23:39:04.582Z,3.67
2023-04-30T23:41:32.547Z,3.90
2023-04-30T23:44:00.484Z,3.65
2023-04-30T23:46:28.493Z,3.88
2023-04-30T23:48:56.659Z,3.78
2023-04-30T23:51:25.947Z,3.53
2023-04-30T23:53:53.881Z,3.63
2023-04-30T23:56:22.044Z,3.50
2023-04-30T23:58:49.967Z,3.25
